Terminal Aerodrome Forecast
Issued by NWS

Home | Current Version | Previous Version | Text Only | Print | Product List | Glossary On
Versions: 1 2 3 4 5 6 7 8 9 10 11 12 13
000
FTAK31 PAJN 182100 AAA
TAFASI
TAF AMD
PASI 182113Z 1821/1918 18012KT P6SM -SHRA SCT030 BKN045 BKN060
      TEMPO 1821/1823 BKN025 BKN040 OVC050
     FM182300 14010KT P6SM VCSH SCT035 BKN050 OVC100
     FM190300 08007KT P6SM BKN070 BKN100
     FM190900 09008KT P6SM VCSH BKN035 OVC050 WS020/12030KT=

USA.gov is the U.S. government's official web portal to all federal, state and local government web resources and services.